Time;durP1;ratioP1;P1;durP2;ratioP2;P2;SDS_P1;SDS_P2;PMS_P1;PMS_P2;Temp;Humidity;BMP_temperature;BMP_pressure;BME280_temperature;BME280_humidity;BME280_pressure;Samples;Min_cycle;Max_cycle;Signal;HPM_P1;HPM_P2
2021/04/09 18:19:37;;;;;;;5.85;1.80;;;11.70;54.80;;;;;;6250999;22;767785;-54
2021/04/09 18:22:04;;;;;;;5.15;2.13;;;11.70;54.90;;;;;;6246356;23;20276;-54
2021/04/09 18:24:30;;;;;;;6.90;3.38;;;11.60;54.90;;;;;;6246274;23;20001;-54
2021/04/09 18:26:55;;;;;;;7.93;2.85;;;11.60;54.90;;;;;;6226211;23;20023;-54
2021/04/09 18:29:21;;;;;;;15.20;3.45;;;11.70;55.00;;;;;;6215024;23;20687;-54
2021/04/09 18:31:46;;;;;;;11.02;4.18;;;11.60;55.00;;;;;;6215965;23;20004;-54
2021/04/09 18:34:12;;;;;;;7.38;3.10;;;11.60;55.00;;;;;;6216093;23;20031;-54
2021/04/09 18:36:39;;;;;;;20.83;4.35;;;11.60;55.20;;;;;;6216208;23;20307;-54
2021/04/09 18:39:05;;;;;;;8.30;3.78;;;11.60;55.20;;;;;;6215702;23;20016;-53
2021/04/09 18:41:31;;;;;;;8.80;3.15;;;11.60;55.30;;;;;;6215861;23;20004;-54
2021/04/09 18:43:57;;;;;;;10.65;3.13;;;11.50;55.30;;;;;;6215652;23;20009;-53
2021/04/09 18:46:22;;;;;;;11.07;3.65;;;11.50;55.40;;;;;;6216173;23;20001;-54
2021/04/09 18:48:48;;;;;;;13.70;4.13;;;11.50;55.50;;;;;;6215867;23;20004;-54
2021/04/09 18:51:14;;;;;;;7.75;3.08;;;11.50;55.60;;;;;;6215884;23;20519;-54
2021/04/09 18:53:41;;;;;;;7.88;2.58;;;11.40;55.70;;;;;;6215897;23;20001;-54
2021/04/09 18:56:07;;;;;;;5.88;2.55;;;11.50;56.40;;;;;;6215825;23;20315;-53
2021/04/09 18:58:33;;;;;;;5.07;2.28;;;11.40;55.80;;;;;;6215237;23;20013;-54
2021/04/09 19:00:59;;;;;;;5.95;2.70;;;11.40;55.90;;;;;;6215228;23;20017;-53
2021/04/09 19:03:24;;;;;;;5.03;2.63;;;11.40;56.00;;;;;;6215886;23;20012;-53
2021/04/09 19:05:51;;;;;;;6.32;2.75;;;11.40;56.00;;;;;;6215149;23;20272;-53
2021/04/09 19:08:18;;;;;;;4.63;2.83;;;11.30;56.00;;;;;;6215403;23;20287;-54
2021/04/09 19:10:43;;;;;;;9.85;3.67;;;11.30;56.10;;;;;;6214614;23;20012;-54
2021/04/09 19:13:09;;;;;;;11.23;4.38;;;11.30;56.20;;;;;;6215703;23;20001;-54
2021/04/09 19:15:35;;;;;;;8.52;3.95;;;11.30;56.20;;;;;;6215802;23;20088;-54
2021/04/09 19:18:01;;;;;;;12.55;4.63;;;11.30;56.30;;;;;;6215630;23;20277;-54
2021/04/09 19:20:27;;;;;;;17.80;4.28;;;11.30;56.40;;;;;;6214605;23;20008;-54
2021/04/09 19:22:52;;;;;;;11.57;3.47;;;11.20;56.40;;;;;;6215624;23;20300;-54
2021/04/09 19:25:20;;;;;;;7.70;3.58;;;11.20;56.40;;;;;;6215110;23;20004;-53
2021/04/09 19:27:47;;;;;;;13.63;4.43;;;11.20;56.50;;;;;;6216033;23;20024;-54
2021/04/09 19:30:16;;;;;;;15.05;4.28;;;11.20;56.50;;;;;;6215392;23;20079;-54
2021/04/09 19:32:43;;;;;;;18.90;6.72;;;11.20;56.60;;;;;;6215972;23;20000;-54
2021/04/09 19:35:10;;;;;;;16.92;7.35;;;11.20;56.60;;;;;;6215940;23;20028;-54
2021/04/09 19:37:36;;;;;;;32.63;11.45;;;11.10;56.70;;;;;;6215020;23;20008;-54
2021/04/09 19:40:02;;;;;;;20.45;8.57;;;11.20;56.70;;;;;;6215416;23;20005;-54
2021/04/09 19:42:28;;;;;;;112.18;27.63;;;11.10;56.80;;;;;;6216075;23;20000;-54
2021/04/09 19:44:53;;;;;;;92.05;23.02;;;11.10;56.90;;;;;;6215537;23;20016;-54
2021/04/09 19:47:19;;;;;;;60.85;13.38;;;11.10;56.90;;;;;;6215219;23;20088;-54
2021/04/09 19:49:45;;;;;;;29.05;9.23;;;11.10;56.90;;;;;;6215760;23;20324;-54
2021/04/09 19:52:11;;;;;;;48.63;12.60;;;11.10;57.10;;;;;;6215795;23;20004;-54
2021/04/09 19:54:38;;;;;;;43.22;12.30;;;11.00;57.00;;;;;;6217583;23;20084;-54
2021/04/09 19:57:04;;;;;;;25.73;8.52;;;11.00;57.10;;;;;;6217859;23;20028;-54
2021/04/09 19:59:30;;;;;;;11.70;5.00;;;11.00;57.10;;;;;;6217451;23;20001;-54
2021/04/09 20:01:55;;;;;;;14.95;4.25;;;11.00;57.30;;;;;;6217634;23;20312;-54
2021/04/09 20:04:21;;;;;;;16.90;5.20;;;11.00;57.20;;;;;;6217918;23;20299;-54
2021/04/09 20:06:48;;;;;;;15.35;5.18;;;11.00;57.40;;;;;;6217726;23;19997;-54
2021/04/09 20:09:14;;;;;;;12.15;3.60;;;11.00;57.40;;;;;;6217152;23;20000;-54
2021/04/09 20:11:39;;;;;;;8.30;2.60;;;10.90;57.40;;;;;;6217668;23;19996;-54
2021/04/09 20:14:05;;;;;;;6.78;2.53;;;10.90;57.50;;;;;;6217693;23;20008;-54
2021/04/09 20:16:30;;;;;;;8.25;3.58;;;10.90;57.50;;;;;;6217782;23;20070;-53
2021/04/09 20:18:56;;;;;;;9.63;4.40;;;10.90;57.60;;;;;;6217443;23;20292;-54
2021/04/09 20:21:22;;;;;;;13.32;4.15;;;10.90;57.70;;;;;;6217604;23;20032;-54
2021/04/09 20:23:47;;;;;;;7.40;3.63;;;10.90;57.80;;;;;;6217342;23;20051;-53
2021/04/09 20:26:13;;;;;;;5.95;2.65;;;10.90;57.80;;;;;;6217305;23;20004;-54
2021/04/09 20:28:39;;;;;;;10.15;3.70;;;10.90;57.80;;;;;;6217294;23;20331;-54
2021/04/09 20:31:05;;;;;;;14.15;5.43;;;10.90;57.80;;;;;;6217807;23;20062;-54
2021/04/09 20:33:31;;;;;;;12.30;4.60;;;10.80;57.80;;;;;;6217517;23;20300;-54
2021/04/09 20:35:58;;;;;;;24.17;4.68;;;10.90;58.00;;;;;;6217761;23;20041;-54
2021/04/09 20:38:23;;;;;;;16.80;4.25;;;10.80;58.00;;;;;;6216910;23;20011;-54
2021/04/09 20:40:49;;;;;;;11.75;4.60;;;10.80;58.00;;;;;;6217278;23;20024;-53
2021/04/09 20:43:14;;;;;;;9.88;3.72;;;10.80;58.10;;;;;;6217000;23;20004;-54
2021/04/09 20:45:40;;;;;;;10.70;3.17;;;10.80;58.20;;;;;;6217420;23;20055;-53
2021/04/09 20:48:06;;;;;;;19.08;4.85;;;10.80;58.20;;;;;;6217171;23;20391;-54
2021/04/09 20:50:32;;;;;;;21.88;6.03;;;10.80;58.40;;;;;;6216688;23;20047;-54
2021/04/09 20:52:57;;;;;;;9.82;3.67;;;10.80;58.30;;;;;;6217074;23;20004;-54
2021/04/09 20:55:23;;;;;;;11.43;3.60;;;10.80;58.40;;;;;;6217356;23;20043;-53
2021/04/09 20:57:54;;;;;;;9.85;3.78;;;10.70;58.40;;;;;;6216690;23;20388;-54
2021/04/09 21:00:20;;;;;;;21.38;5.38;;;10.70;58.50;;;;;;6216818;23;20072;-53
2021/04/09 21:02:46;;;;;;;12.73;5.10;;;10.70;58.50;;;;;;6217304;23;20005;-53
2021/04/09 21:05:12;;;;;;;9.77;3.67;;;10.70;58.60;;;;;;6216896;23;20414;-54
2021/04/09 21:07:38;;;;;;;11.27;3.90;;;10.70;58.70;;;;;;6216814;23;20005;-54
2021/04/09 21:10:04;;;;;;;12.63;4.47;;;10.70;58.70;;;;;;6216474;23;20007;-54
2021/04/09 21:12:30;;;;;;;11.30;4.40;;;10.70;58.70;;;;;;6216921;23;20027;-54
2021/04/09 21:14:55;;;;;;;11.70;4.80;;;10.70;58.80;;;;;;6217587;23;20380;-53
2021/04/09 21:17:21;;;;;;;16.52;5.35;;;10.70;58.80;;;;;;6217059;23;20008;-53
2021/04/09 21:19:46;;;;;;;16.50;4.85;;;10.60;58.80;;;;;;6216274;23;20012;-54
2021/04/09 21:22:12;;;;;;;13.90;4.50;;;10.60;58.90;;;;;;6217042;23;20028;-54
2021/04/09 21:24:39;;;;;;;11.18;3.60;;;10.70;59.00;;;;;;6216819;23;20008;-54
2021/04/09 21:27:05;;;;;;;12.60;3.33;;;10.60;59.00;;;;;;6216628;23;20009;-53
2021/04/09 21:29:31;;;;;;;5.20;2.67;;;10.60;59.00;;;;;;6216775;23;20023;-54
2021/04/09 21:31:57;;;;;;;5.45;2.88;;;10.60;59.10;;;;;;6216939;23;20291;-54
2021/04/09 21:34:22;;;;;;;6.38;2.78;;;10.60;59.20;;;;;;6217088;23;20001;-54
2021/04/09 21:36:48;;;;;;;8.68;2.90;;;10.60;59.30;;;;;;6216678;23;20088;-54
2021/04/09 21:39:14;;;;;;;5.97;2.85;;;10.60;59.20;;;;;;6216789;23;19997;-54
2021/04/09 21:41:39;;;;;;;11.40;3.97;;;10.60;59.30;;;;;;6216156;23;20076;-54
2021/04/09 21:44:05;;;;;;;13.75;5.70;;;10.60;59.40;;;;;;6216961;23;20024;-54
2021/04/09 21:46:33;;;;;;;13.38;4.30;;;10.60;59.30;;;;;;6216725;23;20062;-54
2021/04/09 21:48:58;;;;;;;14.38;4.90;;;10.60;59.40;;;;;;6216511;23;20075;-54
2021/04/09 21:51:24;;;;;;;11.30;3.50;;;10.60;60.00;;;;;;6217239;23;20043;-53
2021/04/09 21:53:50;;;;;;;7.72;3.08;;;10.60;59.50;;;;;;6216855;23;20075;-54
2021/04/09 21:56:16;;;;;;;4.97;2.88;;;10.60;59.50;;;;;;6216029;23;20015;-54
2021/04/09 21:58:41;;;;;;;6.60;2.90;;;10.60;59.60;;;;;;6216465;23;20004;-54
2021/04/09 22:01:07;;;;;;;8.50;3.67;;;10.60;59.60;;;;;;6216293;23;20005;-54
2021/04/09 22:03:32;;;;;;;10.40;3.92;;;10.60;59.60;;;;;;6216434;23;20055;-54
2021/04/09 22:05:58;;;;;;;15.48;3.75;;;10.60;59.70;;;;;;6216476;23;20005;-54
2021/04/09 22:08:24;;;;;;;7.82;3.38;;;10.60;59.70;;;;;;6216305;23;20028;-53
2021/04/09 22:10:49;;;;;;;15.80;3.92;;;10.60;59.70;;;;;;6216347;23;20384;-53
2021/04/09 22:13:15;;;;;;;10.80;3.60;;;10.60;59.70;;;;;;6216576;23;20005;-54
2021/04/09 22:15:41;;;;;;;7.57;3.80;;;10.60;59.80;;;;;;6216238;23;20189;-54
2021/04/09 22:18:08;;;;;;;7.30;2.88;;;10.60;59.80;;;;;;6216083;23;20011;-54
2021/04/09 22:20:37;;;;;;;10.40;3.53;;;10.60;59.80;;;;;;6215612;23;20008;-53
2021/04/09 22:23:06;;;;;;;7.25;3.33;;;10.60;60.50;;;;;;6216166;23;20362;-53
2021/04/09 22:25:32;;;;;;;7.97;3.05;;;10.60;59.80;;;;;;6216404;23;20028;-54
2021/04/09 22:28:00;;;;;;;9.02;2.67;;;10.60;59.90;;;;;;6216358;23;20058;-54
2021/04/09 22:30:27;;;;;;;9.80;2.97;;;10.60;59.90;;;;;;6215919;23;20335;-54
2021/04/09 22:32:53;;;;;;;6.53;2.47;;;10.60;59.90;;;;;;6215970;23;20004;-53
2021/04/09 22:35:19;;;;;;;10.68;2.85;;;10.60;60.00;;;;;;6215953;23;20080;-53
2021/04/09 22:37:46;;;;;;;4.35;2.63;;;10.60;60.00;;;;;;6216030;23;20009;-54
2021/04/09 22:40:13;;;;;;;4.75;2.50;;;10.60;60.00;;;;;;6216042;23;20099;-54
2021/04/09 22:42:39;;;;;;;6.40;2.80;;;10.60;60.10;;;;;;6216295;23;20009;-54
2021/04/09 22:45:06;;;;;;;4.63;2.65;;;10.60;60.00;;;;;;6215855;23;20092;-54
2021/04/09 22:47:32;;;;;;;9.65;3.10;;;10.60;60.10;;;;;;6216145;23;20091;-54
2021/04/09 22:49:59;;;;;;;5.07;2.28;;;10.60;60.10;;;;;;6215542;23;20008;-54
2021/04/09 22:52:25;;;;;;;4.95;2.75;;;10.60;60.20;;;;;;6215928;23;20328;-53
2021/04/09 22:54:50;;;;;;;9.02;2.55;;;10.60;60.20;;;;;;6216013;23;20407;-54
2021/04/09 22:57:16;;;;;;;6.43;3.00;;;10.60;60.30;;;;;;6215677;23;20064;-54
2021/04/09 22:59:41;;;;;;;4.45;2.13;;;10.60;60.30;;;;;;6215971;23;20083;-53
2021/04/09 23:02:07;;;;;;;6.57;2.33;;;10.60;60.30;;;;;;6215849;23;20004;-54
2021/04/09 23:04:34;;;;;;;4.65;2.25;;;10.60;60.40;;;;;;6215547;23;20007;-53
2021/04/09 23:07:00;;;;;;;6.35;2.58;;;10.60;60.40;;;;;;6215982;23;20001;-53
2021/04/09 23:09:26;;;;;;;6.35;2.35;;;10.60;60.40;;;;;;6215638;23;20023;-54
2021/04/09 23:11:52;;;;;;;8.23;2.15;;;10.60;60.40;;;;;;6215792;23;20005;-53
2021/04/09 23:14:17;;;;;;;12.07;2.72;;;10.60;60.50;;;;;;6215857;23;20005;-54
2021/04/09 23:16:43;;;;;;;4.85;2.60;;;10.60;61.30;;;;;;6216068;23;20354;-53
2021/04/09 23:19:08;;;;;;;6.20;3.13;;;10.60;60.50;;;;;;6215259;23;20004;-54
2021/04/09 23:21:34;;;;;;;6.03;3.10;;;10.60;60.60;;;;;;6215327;23;19997;-54
2021/04/09 23:23:59;;;;;;;9.75;2.90;;;10.60;60.50;;;;;;6215966;23;20063;-54
2021/04/09 23:26:25;;;;;;;5.43;2.75;;;10.60;60.60;;;;;;6215967;23;20387;-53
2021/04/09 23:28:50;;;;;;;9.27;3.40;;;10.60;60.60;;;;;;6215431;23;20080;-53
2021/04/09 23:31:16;;;;;;;5.80;2.60;;;10.60;60.60;;;;;;6216046;23;20300;-54
2021/04/09 23:33:41;;;;;;;9.77;2.42;;;10.60;60.60;;;;;;6215886;23;20485;-53
2021/04/09 23:36:07;;;;;;;10.88;2.92;;;10.60;60.80;;;;;;6215724;23;20016;-54
2021/04/09 23:38:33;;;;;;;6.30;3.20;;;10.60;60.80;;;;;;6215465;23;20083;-54
2021/04/09 23:40:58;;;;;;;5.35;2.92;;;10.60;60.80;;;;;;6215596;23;20005;-54
2021/04/09 23:43:24;;;;;;;5.45;2.80;;;10.60;60.80;;;;;;6215557;23;20015;-53
2021/04/09 23:45:50;;;;;;;5.53;3.20;;;10.60;60.80;;;;;;6215470;23;20048;-53
2021/04/09 23:48:16;;;;;;;7.78;2.70;;;10.60;60.90;;;;;;6215693;23;20058;-53
2021/04/09 23:50:41;;;;;;;5.82;2.83;;;10.60;60.90;;;;;;6215606;23;20005;-54
2021/04/09 23:53:07;;;;;;;7.15;2.83;;;10.60;60.90;;;;;;6215363;23;20317;-54
2021/04/09 23:55:33;;;;;;;4.30;2.75;;;10.60;60.90;;;;;;6215392;23;20017;-53
2021/04/09 23:57:58;;;;;;;4.85;3.20;;;10.60;61.00;;;;;;6215762;23;19996;-53
